createdAt,value
2023-04-13T00:01:46.139Z,32.40
2023-04-13T00:05:13.881Z,34.90
2023-04-13T00:08:42.863Z,35.90
2023-04-13T00:12:11.121Z,34.10
2023-04-13T00:15:41.913Z,30.10
2023-04-13T00:19:09.097Z,29.70
2023-04-13T00:22:35.870Z,32.20
2023-04-13T00:26:03.145Z,31.00
2023-04-13T00:29:29.840Z,38.50
2023-04-13T00:32:56.930Z,33.40
2023-04-13T00:36:24.733Z,34.10
2023-04-13T00:39:51.892Z,29.60
2023-04-13T00:43:19.237Z,31.70
2023-04-13T00:46:46.534Z,31.20
2023-04-13T00:50:13.794Z,33.70
2023-04-13T00:53:41.592Z,32.20
2023-04-13T00:57:09.703Z,34.30
2023-04-13T01:00:39.044Z,35.70
2023-04-13T01:04:06.861Z,33.20
2023-04-13T01:07:41.608Z,32.60
2023-04-13T01:11:19.375Z,38.00
2023-04-13T01:14:56.882Z,34.90
2023-04-13T01:18:25.479Z,34.80
2023-04-13T01:21:54.739Z,31.30
2023-04-13T01:25:32.788Z,33.20
2023-04-13T01:29:00.529Z,35.20
2023-04-13T01:32:28.267Z,32.40
2023-04-13T01:35:56.462Z,33.50
2023-04-13T01:39:32.065Z,34.30
2023-04-13T01:43:07.069Z,32.20
2023-04-13T01:46:49.634Z,33.90
2023-04-13T01:50:39.353Z,32.90
2023-04-13T01:54:16.306Z,31.00
2023-04-13T01:57:47.329Z,34.30
2023-04-13T02:01:14.992Z,33.10
2023-04-13T02:04:41.949Z,31.80
2023-04-13T02:08:11.003Z,32.30
2023-04-13T02:11:44.141Z,30.60
2023-04-13T02:15:12.784Z,32.30
2023-04-13T02:18:41.180Z,34.40
2023-04-13T02:22:08.606Z,31.60
2023-04-13T02:25:35.865Z,32.40
2023-04-13T02:29:02.764Z,30.30
2023-04-13T02:32:31.565Z,35.90
2023-04-13T02:35:59.092Z,32.60
2023-04-13T02:39:26.539Z,36.10
2023-04-13T02:42:57.209Z,31.20
2023-04-13T02:49:56.133Z,39.00
2023-04-13T02:53:31.097Z,32.40
2023-04-13T02:57:02.182Z,35.30
2023-04-13T03:00:30.478Z,29.20
2023-04-13T03:04:01.217Z,36.20
2023-04-13T03:07:29.487Z,33.80
2023-04-13T03:10:56.621Z,33.80
2023-04-13T03:14:23.986Z,35.30
2023-04-13T03:17:55.268Z,30.40
2023-04-13T03:21:24.519Z,35.80
2023-04-13T03:25:11.589Z,35.50
2023-04-13T03:28:39.153Z,36.10
2023-04-13T03:32:07.077Z,36.80
2023-04-13T03:35:36.004Z,32.40
2023-04-13T03:39:05.739Z,35.30
2023-04-13T03:42:35.624Z,35.20
2023-04-13T03:46:02.930Z,34.60
2023-04-13T03:49:32.058Z,35.80
2023-04-13T03:52:59.245Z,31.60
2023-04-13T03:56:27.481Z,31.90
2023-04-13T03:59:56.363Z,35.90
2023-04-13T04:03:41.070Z,34.50
2023-04-13T04:07:08.837Z,31.80
2023-04-13T04:10:36.031Z,36.20
2023-04-13T04:14:03.081Z,33.90
2023-04-13T04:17:30.814Z,42.30
2023-04-13T04:20:58.077Z,35.40
2023-04-13T04:24:27.850Z,33.50
2023-04-13T04:27:58.315Z,34.10
2023-04-13T04:31:25.395Z,35.00
2023-04-13T04:34:54.952Z,38.50
2023-04-13T04:38:24.391Z,39.30
2023-04-13T04:41:54.352Z,40.50
2023-04-13T04:45:23.402Z,32.80
2023-04-13T04:48:52.037Z,33.50
2023-04-13T04:52:21.418Z,34.30
2023-04-13T04:55:49.856Z,34.80
2023-04-13T04:59:26.951Z,31.20
2023-04-13T05:02:57.740Z,34.10
2023-04-13T05:06:25.069Z,36.50
2023-04-13T05:09:52.303Z,43.30
2023-04-13T05:13:19.213Z,34.30
2023-04-13T05:16:55.575Z,34.10
2023-04-13T05:20:29.944Z,36.70
2023-04-13T05:24:04.430Z,33.50
2023-04-13T05:27:32.171Z,31.20
2023-04-13T05:31:05.478Z,33.20
2023-04-13T05:34:35.904Z,32.00
2023-04-13T05:38:09.933Z,38.40
2023-04-13T05:41:37.742Z,41.90
2023-04-13T05:45:09.730Z,34.30
2023-04-13T05:48:42.037Z,35.20
2023-04-13T05:52:10.644Z,41.90
2023-04-13T05:55:47.467Z,38.00
2023-04-13T05:59:16.432Z,37.20
2023-04-13T06:02:44.220Z,37.30
2023-04-13T06:06:14.324Z,41.00
2023-04-13T06:09:43.673Z,35.20
2023-04-13T06:13:10.848Z,31.00
2023-04-13T06:16:38.363Z,33.80
2023-04-13T06:20:07.961Z,39.00
2023-04-13T06:23:34.885Z,33.70
2023-04-13T06:27:07.390Z,25.30
2023-04-13T06:30:35.307Z,29.70
2023-04-13T06:34:05.903Z,23.80
2023-04-13T06:37:36.072Z,30.20
2023-04-13T06:41:06.298Z,25.00
2023-04-13T06:44:35.804Z,24.00
2023-04-13T06:48:03.423Z,38.30
2023-04-13T06:51:32.978Z,24.70
2023-04-13T06:55:00.268Z,22.00
2023-04-13T06:58:33.561Z,22.70
2023-04-13T07:02:00.469Z,25.90
2023-04-13T07:05:27.739Z,27.90
2023-04-13T07:08:58.677Z,25.80
2023-04-13T07:12:26.893Z,21.40
2023-04-13T07:15:54.129Z,26.40
2023-04-13T07:19:23.821Z,25.70
2023-04-13T07:26:18.344Z,21.50
2023-04-13T07:29:45.924Z,23.30
2023-04-13T07:33:16.219Z,28.50
2023-04-13T07:36:44.046Z,21.40
2023-04-13T07:43:41.593Z,29.40
2023-04-13T07:47:09.796Z,22.30
2023-04-13T07:50:42.982Z,18.80
2023-04-13T07:54:14.567Z,19.50
2023-04-13T07:57:43.724Z,22.30
2023-04-13T08:01:11.394Z,17.90
2023-04-13T08:04:38.560Z,18.80
2023-04-13T08:08:06.951Z,18.50
2023-04-13T08:11:34.065Z,36.10
2023-04-13T08:15:05.218Z,33.60
2023-04-13T08:18:32.412Z,56.90
2023-04-13T08:22:00.451Z,30.90
2023-04-13T08:25:28.579Z,24.10
2023-04-13T08:28:57.626Z,14.00
2023-04-13T08:32:25.211Z,16.20
2023-04-13T08:35:52.099Z,12.50
2023-04-13T08:39:19.123Z,16.00
2023-04-13T08:42:47.651Z,14.90
2023-04-13T08:46:21.389Z,13.40
2023-04-13T08:49:51.515Z,14.20
2023-04-13T08:53:25.284Z,13.50
2023-04-13T08:56:52.876Z,17.00
2023-04-13T09:00:22.998Z,16.90
2023-04-13T09:03:55.577Z,19.60
2023-04-13T09:07:27.769Z,16.10
2023-04-13T09:10:59.025Z,17.70
2023-04-13T09:14:26.793Z,17.40
2023-04-13T09:17:54.162Z,15.70
2023-04-13T09:21:21.560Z,13.80
2023-04-13T09:24:48.744Z,14.50
2023-04-13T09:28:22.076Z,13.40
2023-04-13T09:31:49.700Z,12.80
2023-04-13T09:35:17.174Z,14.00
2023-04-13T09:38:46.701Z,10.40
2023-04-13T09:42:18.284Z,10.50
2023-04-13T09:45:45.660Z,8.70
2023-04-13T09:49:12.819Z,6.80
2023-04-13T09:52:39.777Z,7.10
2023-04-13T09:56:07.783Z,6.50
2023-04-13T09:59:35.717Z,9.30
2023-04-13T10:03:03.444Z,6.10
2023-04-13T10:06:31.948Z,6.40
2023-04-13T10:09:58.857Z,7.90
2023-04-13T10:13:31.761Z,4.80
2023-04-13T10:17:14.944Z,6.20
2023-04-13T10:20:42.772Z,4.90
2023-04-13T10:24:13.197Z,7.00
2023-04-13T10:27:42.721Z,5.60
2023-04-13T10:31:10.558Z,6.90
2023-04-13T10:34:39.927Z,5.50
2023-04-13T10:38:08.755Z,4.20
2023-04-13T10:41:36.874Z,6.00
2023-04-13T10:45:04.365Z,5.10
2023-04-13T10:48:31.207Z,5.00
2023-04-13T10:51:58.012Z,4.30
2023-04-13T10:55:27.308Z,5.40
2023-04-13T10:58:57.521Z,4.50
2023-04-13T11:02:27.850Z,4.00
2023-04-13T11:06:00.331Z,4.80
2023-04-13T11:09:27.346Z,3.50
2023-04-13T11:12:55.332Z,2.90
2023-04-13T11:16:22.176Z,4.40
2023-04-13T11:19:53.729Z,5.60
2023-04-13T11:23:24.055Z,10.40
2023-04-13T11:26:51.291Z,14.70
2023-04-13T11:30:25.203Z,4.50
2023-04-13T11:33:55.901Z,4.70
2023-04-13T11:37:28.414Z,3.80
2023-04-13T11:44:37.408Z,3.70
2023-04-13T11:48:08.187Z,2.20
2023-04-13T11:51:36.243Z,2.10
2023-04-13T11:55:18.930Z,2.30
2023-04-13T11:58:54.451Z,2.50
2023-04-13T12:02:30.554Z,3.70
2023-04-13T12:06:07.924Z,3.10
2023-04-13T12:13:24.007Z,3.20
2023-04-13T12:20:40.236Z,5.20
2023-04-13T12:24:11.453Z,3.00
2023-04-13T12:27:43.990Z,3.40
2023-04-13T12:31:12.299Z,4.30
2023-04-13T12:34:39.252Z,3.70
2023-04-13T12:38:07.301Z,4.00
2023-04-13T12:41:34.652Z,4.10
2023-04-13T12:45:01.606Z,4.70
2023-04-13T12:48:29.615Z,2.90
2023-04-13T12:51:56.465Z,5.50
2023-04-13T12:55:23.492Z,5.90
2023-04-13T12:58:50.315Z,3.60
2023-04-13T13:02:17.505Z,5.60
2023-04-13T13:05:44.812Z,2.20
2023-04-13T13:09:11.939Z,2.90
2023-04-13T13:12:39.020Z,4.40
2023-04-13T13:16:06.770Z,3.00
2023-04-13T13:19:33.744Z,4.60
2023-04-13T13:23:00.605Z,2.00
2023-04-13T13:26:36.653Z,3.60
2023-04-13T13:30:14.193Z,5.80
2023-04-13T13:33:41.002Z,2.80
2023-04-13T13:37:07.895Z,2.30
2023-04-13T13:40:34.904Z,1.80
2023-04-13T13:44:02.233Z,3.60
2023-04-13T13:47:29.352Z,5.90
2023-04-13T13:50:56.536Z,2.10
2023-04-13T13:54:24.515Z,4.60
2023-04-13T13:57:51.400Z,5.60
2023-04-13T14:01:18.667Z,3.50
2023-04-13T14:04:45.654Z,4.30
2023-04-13T14:08:12.736Z,3.40
2023-04-13T14:11:40.931Z,4.60
2023-04-13T14:15:09.944Z,3.00
2023-04-13T14:18:36.970Z,4.30
2023-04-13T14:22:04.030Z,2.80
2023-04-13T14:25:30.822Z,2.40
2023-04-13T14:29:00.169Z,5.40
2023-04-13T14:32:27.567Z,4.90
2023-04-13T14:35:54.426Z,3.50
2023-04-13T14:39:21.245Z,6.20
2023-04-13T14:42:48.135Z,1.90
2023-04-13T14:46:15.775Z,3.00
2023-04-13T14:49:43.287Z,3.90
2023-04-13T14:53:10.117Z,2.20
2023-04-13T14:56:37.326Z,3.50
2023-04-13T15:00:07.360Z,3.10
2023-04-13T15:03:34.519Z,3.70
2023-04-13T15:07:02.232Z,4.30
2023-04-13T15:10:30.290Z,7.50
2023-04-13T15:13:57.081Z,3.50
2023-04-13T15:17:23.908Z,5.40
2023-04-13T15:20:50.824Z,1.70
2023-04-13T15:24:17.893Z,3.40
2023-04-13T15:27:44.686Z,4.60
2023-04-13T15:31:11.612Z,3.30
2023-04-13T15:34:38.390Z,4.70
2023-04-13T15:38:06.439Z,5.30
2023-04-13T15:41:35.244Z,5.50
2023-04-13T15:45:04.611Z,6.70
2023-04-13T15:48:35.516Z,7.30
2023-04-13T15:52:05.875Z,6.20
2023-04-13T15:55:37.041Z,5.60
2023-04-13T15:59:05.916Z,8.70
2023-04-13T16:02:34.002Z,4.80
2023-04-13T16:06:03.336Z,6.00
2023-04-13T16:13:19.654Z,5.00
2023-04-13T16:16:54.231Z,5.60
2023-04-13T16:20:27.643Z,4.30
2023-04-13T16:23:58.269Z,7.50
2023-04-13T16:27:30.120Z,4.80
2023-04-13T16:31:07.800Z,5.20
2023-04-13T16:34:44.526Z,8.70
2023-04-13T16:38:12.462Z,6.40
2023-04-13T16:41:39.569Z,6.10
2023-04-13T16:45:07.704Z,5.00
2023-04-13T16:48:34.651Z,5.30
2023-04-13T16:52:02.022Z,5.70
2023-04-13T16:55:32.513Z,5.90
2023-04-13T16:59:02.422Z,9.80
2023-04-13T17:02:31.776Z,8.30
2023-04-13T17:06:02.615Z,8.50
2023-04-13T17:09:33.491Z,5.90
2023-04-13T17:13:05.722Z,5.90
2023-04-13T17:20:10.368Z,5.00
2023-04-13T17:23:38.912Z,6.90
2023-04-13T17:27:11.490Z,8.50
2023-04-13T17:30:40.814Z,13.80
2023-04-13T17:34:10.075Z,10.30
2023-04-13T17:37:40.272Z,12.80
2023-04-13T17:41:08.075Z,11.00
2023-04-13T17:44:38.472Z,10.60
2023-04-13T17:48:07.663Z,10.90
2023-04-13T17:51:36.953Z,11.00
2023-04-13T17:55:08.420Z,8.90
2023-04-13T17:58:38.724Z,7.60
2023-04-13T18:02:09.662Z,6.60
2023-04-13T18:05:38.392Z,6.60
2023-04-13T18:09:09.274Z,7.10
2023-04-13T18:12:43.768Z,8.80
2023-04-13T18:16:13.955Z,7.30
2023-04-13T18:19:44.536Z,8.50
2023-04-13T18:23:12.065Z,10.60
2023-04-13T18:26:40.641Z,11.40
2023-04-13T18:30:10.204Z,11.10
2023-04-13T18:33:37.956Z,16.10
2023-04-13T18:37:06.399Z,13.60
2023-04-13T18:40:34.573Z,16.60
2023-04-13T18:44:02.301Z,14.70
2023-04-13T18:47:29.859Z,23.90
2023-04-13T18:56:15.535Z,20.50
2023-04-13T18:59:44.240Z,15.40
2023-04-13T19:03:12.363Z,18.10
2023-04-13T19:06:40.312Z,38.90
2023-04-13T19:10:09.659Z,67.00
2023-04-13T19:13:36.995Z,47.40
2023-04-13T19:17:05.734Z,34.40
2023-04-13T19:20:33.158Z,28.30
2023-04-13T19:24:00.119Z,28.20
2023-04-13T19:27:28.901Z,42.10
2023-04-13T19:30:56.294Z,45.40
2023-04-13T19:34:23.513Z,50.70
2023-04-13T19:37:50.436Z,48.80
2023-04-13T19:41:17.219Z,61.80
2023-04-13T19:44:44.193Z,37.30
2023-04-13T19:48:11.651Z,24.10
2023-04-13T19:51:38.530Z,14.50
2023-04-13T19:55:06.322Z,13.60
2023-04-13T19:58:33.565Z,13.70
2023-04-13T20:02:00.848Z,10.10
2023-04-13T20:05:28.079Z,12.20
2023-04-13T20:08:55.022Z,9.80
2023-04-13T20:12:22.000Z,7.80
2023-04-13T20:15:49.407Z,9.60
2023-04-13T20:19:16.987Z,11.20
2023-04-13T20:22:45.483Z,11.10
2023-04-13T20:26:12.373Z,9.90
2023-04-13T20:29:39.199Z,8.00
2023-04-13T20:33:07.355Z,9.30
2023-04-13T20:36:34.627Z,6.90
2023-04-13T20:40:02.666Z,11.20
2023-04-13T20:43:30.495Z,8.80
2023-04-13T20:46:57.533Z,10.10
2023-04-13T20:50:27.604Z,9.90
2023-04-13T20:53:54.401Z,10.70
2023-04-13T20:57:21.434Z,10.40
2023-04-13T21:00:49.018Z,11.50
2023-04-13T21:04:16.071Z,15.10
2023-04-13T21:07:43.742Z,17.40
2023-04-13T21:11:10.737Z,12.90
2023-04-13T21:14:37.622Z,13.50
2023-04-13T21:18:04.754Z,12.90
2023-04-13T21:21:34.497Z,15.50
2023-04-13T21:25:05.726Z,13.90
2023-04-13T21:28:34.729Z,11.40
2023-04-13T21:32:02.595Z,14.60
2023-04-13T21:35:30.890Z,14.60
2023-04-13T21:38:57.842Z,17.00
2023-04-13T21:42:24.916Z,19.70
2023-04-13T21:45:51.809Z,19.90
2023-04-13T21:49:18.906Z,13.10
2023-04-13T21:52:45.937Z,17.10
2023-04-13T21:56:12.972Z,15.10
2023-04-13T21:59:40.139Z,14.40
2023-04-13T22:03:07.211Z,14.70
2023-04-13T22:06:34.531Z,14.10
2023-04-13T22:10:02.162Z,17.80
2023-04-13T22:13:29.654Z,21.80
2023-04-13T22:16:56.585Z,20.00
2023-04-13T22:20:23.433Z,21.10
2023-04-13T22:23:50.339Z,19.80
2023-04-13T22:27:17.247Z,17.60
2023-04-13T22:30:44.900Z,14.20
2023-04-13T22:34:12.000Z,12.90
2023-04-13T22:37:38.815Z,11.70
2023-04-13T22:41:09.817Z,11.70
2023-04-13T22:44:37.270Z,12.60
2023-04-13T22:48:04.898Z,17.50
2023-04-13T22:51:38.340Z,13.60
2023-04-13T22:55:05.701Z,13.10
2023-04-13T22:58:32.516Z,12.50
2023-04-13T23:02:01.151Z,13.80
2023-04-13T23:05:28.398Z,13.30
2023-04-13T23:08:57.547Z,16.20
2023-04-13T23:12:24.361Z,14.70
2023-04-13T23:15:51.205Z,15.20
2023-04-13T23:19:19.600Z,17.10
2023-04-13T23:22:46.447Z,20.50
2023-04-13T23:26:13.503Z,19.80
2023-04-13T23:29:45.461Z,19.30
2023-04-13T23:33:12.296Z,21.10
2023-04-13T23:36:39.267Z,21.90
2023-04-13T23:40:07.483Z,24.90
2023-04-13T23:43:34.285Z,22.40
2023-04-13T23:47:01.217Z,24.90
2023-04-13T23:50:28.131Z,29.10
2023-04-13T23:53:54.939Z,25.60
2023-04-13T23:57:22.512Z,34.20
